createdAt,value
2022-11-20T00:01:47.960Z,4.97
2022-11-20T00:04:33.247Z,5.10
2022-11-20T00:07:18.821Z,4.85
2022-11-20T00:10:04.485Z,5.07
2022-11-20T00:12:49.838Z,5.18
2022-11-20T00:15:35.540Z,4.97
2022-11-20T00:18:20.896Z,5.22
2022-11-20T00:21:08.807Z,4.73
2022-11-20T00:23:56.023Z,5.22
2022-11-20T00:26:41.487Z,5.20
2022-11-20T00:29:26.957Z,5.05
2022-11-20T00:32:12.579Z,4.90
2022-11-20T00:34:57.911Z,5.30
2022-11-20T00:37:43.524Z,4.82
2022-11-20T00:40:28.828Z,5.88
2022-11-20T00:43:14.393Z,5.57
2022-11-20T00:46:04.742Z,6.10
2022-11-20T00:48:50.838Z,5.40
2022-11-20T00:51:36.345Z,5.22
2022-11-20T00:54:21.597Z,5.22
2022-11-20T00:57:07.313Z,6.10
2022-11-20T00:59:52.813Z,4.97
2022-11-20T01:02:38.279Z,5.40
2022-11-20T01:05:23.550Z,6.05
2022-11-20T01:08:09.479Z,5.70
2022-11-20T01:10:59.961Z,5.60
2022-11-20T01:13:47.248Z,5.47
2022-11-20T01:16:35.955Z,5.57
2022-11-20T01:19:24.190Z,5.30
2022-11-20T01:22:10.295Z,5.32
2022-11-20T01:24:55.647Z,5.15
2022-11-20T01:27:41.333Z,5.67
2022-11-20T01:30:27.104Z,5.15
2022-11-20T01:33:12.535Z,5.38
2022-11-20T01:36:05.585Z,5.70
2022-11-20T01:38:55.459Z,5.45
2022-11-20T01:42:02.614Z,5.95
2022-11-20T01:44:58.748Z,5.47
2022-11-20T01:47:47.398Z,5.70
2022-11-20T01:50:34.690Z,5.47
2022-11-20T01:53:24.355Z,5.72
2022-11-20T01:56:12.335Z,5.75
2022-11-20T01:59:02.779Z,5.70
2022-11-20T02:01:48.727Z,5.20
2022-11-20T02:04:34.068Z,5.28
2022-11-20T02:07:20.910Z,5.60
2022-11-20T02:10:07.029Z,5.88
2022-11-20T02:13:11.337Z,5.82
2022-11-20T02:15:56.868Z,5.28
2022-11-20T02:18:44.297Z,5.45
2022-11-20T02:22:15.919Z,5.38
2022-11-20T02:25:04.627Z,5.30
2022-11-20T02:27:50.774Z,5.03
2022-11-20T02:30:36.179Z,5.22
2022-11-20T02:33:21.873Z,4.45
2022-11-20T02:36:12.462Z,4.68
2022-11-20T02:38:57.713Z,4.85
2022-11-20T02:41:43.508Z,4.75
2022-11-20T02:44:29.212Z,5.10
2022-11-20T02:47:14.828Z,5.32
2022-11-20T02:50:00.351Z,5.00
2022-11-20T02:52:45.945Z,5.00
2022-11-20T02:55:31.469Z,5.25
2022-11-20T02:58:17.052Z,5.20
2022-11-20T03:01:02.406Z,5.40
2022-11-20T03:03:49.550Z,5.72
2022-11-20T03:06:35.396Z,6.43
2022-11-20T03:09:20.910Z,6.30
2022-11-20T03:12:06.769Z,5.82
2022-11-20T03:14:53.451Z,6.53
2022-11-20T03:17:39.245Z,6.20
2022-11-20T03:20:25.105Z,5.47
2022-11-20T03:23:10.578Z,6.50
2022-11-20T03:25:56.105Z,5.25
2022-11-20T03:28:43.348Z,4.78
2022-11-20T03:31:34.430Z,4.70
2022-11-20T03:34:19.776Z,4.80
2022-11-20T03:37:05.272Z,4.50
2022-11-20T03:39:50.586Z,4.00
2022-11-20T03:42:47.780Z,5.25
2022-11-20T03:45:33.096Z,5.10
2022-11-20T03:48:18.566Z,4.20
2022-11-20T03:51:15.640Z,4.93
2022-11-20T03:54:04.555Z,4.65
2022-11-20T03:56:49.963Z,4.88
2022-11-20T03:59:35.550Z,4.28
2022-11-20T04:02:21.073Z,4.63
2022-11-20T04:05:06.867Z,4.28
2022-11-20T04:07:52.496Z,4.32
2022-11-20T04:10:38.540Z,3.80
2022-11-20T04:13:24.123Z,4.50
2022-11-20T04:16:10.678Z,4.28
2022-11-20T04:18:58.026Z,3.70
2022-11-20T04:21:44.838Z,4.07
2022-11-20T04:24:30.290Z,3.67
2022-11-20T04:27:15.636Z,4.07
2022-11-20T04:30:01.100Z,3.88
2022-11-20T04:32:46.699Z,4.15
2022-11-20T04:35:35.193Z,2.97
2022-11-20T04:38:20.646Z,3.80
2022-11-20T04:41:08.081Z,3.65
2022-11-20T04:44:00.014Z,4.15
2022-11-20T04:46:45.633Z,3.58
2022-11-20T04:49:32.440Z,3.87
2022-11-20T04:52:18.116Z,3.13
2022-11-20T04:55:04.027Z,3.45
2022-11-20T04:57:52.229Z,3.73
2022-11-20T05:00:37.959Z,4.10
2022-11-20T05:03:23.325Z,3.75
2022-11-20T05:06:10.516Z,4.10
2022-11-20T05:08:55.938Z,4.22
2022-11-20T05:11:41.534Z,4.00
2022-11-20T05:14:27.042Z,4.07
2022-11-20T05:17:13.341Z,4.50
2022-11-20T05:19:59.021Z,4.50
2022-11-20T05:22:45.045Z,4.88
2022-11-20T05:25:30.665Z,5.28
2022-11-20T05:28:16.241Z,5.43
2022-11-20T05:31:10.031Z,4.90
2022-11-20T05:33:57.485Z,4.80
2022-11-20T05:36:43.210Z,4.95
2022-11-20T05:39:28.672Z,6.13
2022-11-20T05:42:31.856Z,5.90
2022-11-20T05:45:17.464Z,6.03
2022-11-20T05:48:02.898Z,5.47
2022-11-20T05:50:49.091Z,5.80
2022-11-20T05:53:35.815Z,6.68
2022-11-20T05:56:22.794Z,6.20
2022-11-20T05:59:08.426Z,6.30
2022-11-20T06:01:53.849Z,6.10
2022-11-20T06:04:39.416Z,6.13
2022-11-20T06:07:25.260Z,5.90
2022-11-20T06:10:11.157Z,5.68
2022-11-20T06:12:58.722Z,6.20
2022-11-20T06:15:50.384Z,6.78
2022-11-20T06:18:36.253Z,6.60
2022-11-20T06:21:24.747Z,6.53
2022-11-20T06:24:11.578Z,6.40
2022-11-20T06:26:57.117Z,6.47
2022-11-20T06:29:42.513Z,6.88
2022-11-20T06:32:27.898Z,6.82
2022-11-20T06:35:13.325Z,6.63
2022-11-20T06:37:58.621Z,6.47
2022-11-20T06:40:44.642Z,6.60
2022-11-20T06:43:30.603Z,7.45
2022-11-20T06:46:20.364Z,7.47
2022-11-20T06:49:05.851Z,7.18
2022-11-20T06:51:51.380Z,7.63
2022-11-20T06:54:37.122Z,7.28
2022-11-20T06:57:22.532Z,7.70
2022-11-20T07:00:08.394Z,6.93
2022-11-20T07:02:53.873Z,7.87
2022-11-20T07:05:39.615Z,7.65
2022-11-20T07:08:25.824Z,7.77
2022-11-20T07:11:14.091Z,7.88
2022-11-20T07:13:59.783Z,8.32
2022-11-20T07:16:45.437Z,8.25
2022-11-20T07:19:31.271Z,8.52
2022-11-20T07:22:17.067Z,8.52
2022-11-20T07:25:02.838Z,8.38
2022-11-20T07:27:48.691Z,8.57
2022-11-20T07:30:34.269Z,7.57
2022-11-20T07:33:20.121Z,10.67
2022-11-20T07:36:06.043Z,10.90
2022-11-20T07:38:51.457Z,11.88
2022-11-20T07:41:37.110Z,11.20
2022-11-20T07:44:22.576Z,11.75
2022-11-20T07:47:07.923Z,11.13
2022-11-20T07:49:53.240Z,11.85
2022-11-20T07:52:39.095Z,11.50
2022-11-20T07:55:24.557Z,10.80
2022-11-20T07:58:09.723Z,10.10
2022-11-20T08:00:55.139Z,10.70
2022-11-20T08:03:40.665Z,10.53
2022-11-20T08:06:26.188Z,10.73
2022-11-20T08:09:11.776Z,10.25
2022-11-20T08:12:16.019Z,10.27
2022-11-20T08:15:01.353Z,9.53
2022-11-20T08:18:08.337Z,9.57
2022-11-20T08:20:52.635Z,8.82
2022-11-20T08:23:37.955Z,8.17
2022-11-20T08:26:24.236Z,7.95
2022-11-20T08:29:09.456Z,8.60
2022-11-20T08:31:54.938Z,19.45
2022-11-20T08:34:40.780Z,12.57
2022-11-20T08:37:26.196Z,11.70
2022-11-20T08:40:16.984Z,12.48
2022-11-20T08:43:05.289Z,12.20
2022-11-20T08:45:50.836Z,11.80
2022-11-20T08:48:36.586Z,13.02
2022-11-20T08:51:22.071Z,11.95
2022-11-20T08:54:07.927Z,12.43
2022-11-20T08:56:53.368Z,14.10
2022-11-20T09:00:06.391Z,11.98
2022-11-20T09:02:44.490Z,11.38
2022-11-20T09:05:30.086Z,10.88
2022-11-20T09:08:15.612Z,10.60
2022-11-20T09:11:01.035Z,10.68
2022-11-20T09:13:46.702Z,11.15
2022-11-20T09:16:32.113Z,10.80
2022-11-20T09:22:23.223Z,10.98
2022-11-20T09:25:08.992Z,8.75
2022-11-20T09:27:58.731Z,9.15
2022-11-20T09:30:44.568Z,7.38
2022-11-20T09:33:29.970Z,9.57
2022-11-20T09:36:16.857Z,6.80
2022-11-20T09:39:02.709Z,13.05
2022-11-20T09:42:06.823Z,8.50
2022-11-20T09:45:17.100Z,7.35
2022-11-20T09:48:27.678Z,6.93
2022-11-20T09:51:31.492Z,9.52
2022-11-20T09:54:27.568Z,9.90
2022-11-20T09:57:18.096Z,10.70
2022-11-20T10:00:06.471Z,10.07
2022-11-20T10:03:02.536Z,10.80
2022-11-20T10:05:55.825Z,10.57
2022-11-20T10:08:48.447Z,8.80
2022-11-20T10:12:06.790Z,9.38
2022-11-20T10:15:27.292Z,6.85
2022-11-20T10:18:38.619Z,3.65
2022-11-20T10:21:55.004Z,3.28
2022-11-20T10:24:45.623Z,2.95
2022-11-20T10:28:01.403Z,2.72
2022-11-20T10:30:58.194Z,3.13
2022-11-20T10:34:10.969Z,2.97
2022-11-20T10:37:11.484Z,3.30
2022-11-20T10:40:20.943Z,3.22
2022-11-20T10:43:32.856Z,3.13
2022-11-20T10:46:25.352Z,3.42
2022-11-20T10:49:19.908Z,3.28
2022-11-20T10:52:35.223Z,3.28
2022-11-20T10:55:46.164Z,3.45
2022-11-20T10:59:11.630Z,2.75
2022-11-20T11:01:57.248Z,2.80
2022-11-20T11:04:53.490Z,2.80
2022-11-20T11:07:41.172Z,2.93
2022-11-20T11:10:47.791Z,2.15
2022-11-20T11:16:01.714Z,2.50
2022-11-20T11:18:47.752Z,2.83
2022-11-20T11:21:33.605Z,2.10
2022-11-20T11:24:43.271Z,2.17
2022-11-20T11:27:29.506Z,2.30
2022-11-20T11:30:18.384Z,2.50
2022-11-20T11:33:26.751Z,1.95
2022-11-20T11:36:22.874Z,2.15
2022-11-20T11:39:21.893Z,2.10
2022-11-20T11:42:15.267Z,2.35
2022-11-20T11:45:08.192Z,2.17
2022-11-20T11:47:57.953Z,1.90
2022-11-20T11:50:50.340Z,2.13
2022-11-20T11:53:42.480Z,2.28
2022-11-20T11:56:29.733Z,1.90
2022-11-20T11:59:26.455Z,2.10
2022-11-20T12:02:51.135Z,2.38
2022-11-20T12:05:48.063Z,2.40
2022-11-20T12:08:54.751Z,2.33
2022-11-20T12:11:48.119Z,2.03
2022-11-20T12:14:44.164Z,2.20
2022-11-20T12:17:30.482Z,2.00
2022-11-20T12:20:16.065Z,2.07
2022-11-20T12:23:46.878Z,1.90
2022-11-20T12:26:56.001Z,1.83
2022-11-20T12:29:50.091Z,1.98
2022-11-20T12:33:13.460Z,1.70
2022-11-20T12:36:20.673Z,1.73
2022-11-20T12:39:34.710Z,1.85
2022-11-20T12:42:53.072Z,2.00
2022-11-20T12:45:55.165Z,1.73
2022-11-20T12:49:04.484Z,1.90
2022-11-20T12:52:32.605Z,2.08
2022-11-20T12:55:38.147Z,2.00
2022-11-20T12:58:28.185Z,1.80
2022-11-20T13:01:43.626Z,1.90
2022-11-20T13:04:52.630Z,1.60
2022-11-20T13:07:39.459Z,1.42
2022-11-20T13:11:01.231Z,1.65
2022-11-20T13:13:54.990Z,1.13
2022-11-20T13:16:53.464Z,1.35
2022-11-20T13:19:40.449Z,1.27
2022-11-20T13:22:42.980Z,1.80
2022-11-20T13:25:36.048Z,1.48
2022-11-20T13:28:21.712Z,1.00
2022-11-20T13:31:44.789Z,1.30
2022-11-20T13:34:30.998Z,1.70
2022-11-20T13:37:35.748Z,1.67
2022-11-20T13:40:23.567Z,1.60
2022-11-20T13:43:18.756Z,1.92
2022-11-20T13:46:07.505Z,1.92
2022-11-20T13:48:54.588Z,2.17
2022-11-20T13:51:52.390Z,1.60
2022-11-20T13:54:59.319Z,2.53
2022-11-20T13:57:58.937Z,1.95
2022-11-20T14:01:02.325Z,1.90
2022-11-20T14:06:55.276Z,1.63
2022-11-20T14:09:54.832Z,1.95
2022-11-20T14:12:40.820Z,1.70
2022-11-20T14:15:28.023Z,1.70
2022-11-20T14:18:16.760Z,1.70
2022-11-20T14:21:04.797Z,1.70
2022-11-20T14:23:54.043Z,1.45
2022-11-20T14:26:45.349Z,1.52
2022-11-20T14:29:37.510Z,1.42
2022-11-20T14:32:29.849Z,1.20
2022-11-20T14:35:26.501Z,1.50
2022-11-20T14:38:14.648Z,1.65
2022-11-20T14:41:08.485Z,1.73
2022-11-20T14:43:58.489Z,1.58
2022-11-20T14:46:46.039Z,1.40
2022-11-20T14:49:33.095Z,1.55
2022-11-20T14:52:22.090Z,1.58
2022-11-20T14:55:10.027Z,1.50
2022-11-20T14:57:58.444Z,1.80
2022-11-20T15:00:57.789Z,3.40
2022-11-20T15:03:43.932Z,3.10
2022-11-20T15:06:30.476Z,2.95
2022-11-20T15:09:16.898Z,3.17
2022-11-20T15:12:04.537Z,3.23
2022-11-20T15:14:49.845Z,3.63
2022-11-20T15:17:39.769Z,3.40
2022-11-20T15:20:32.571Z,3.10
2022-11-20T15:23:20.491Z,3.45
2022-11-20T15:26:07.444Z,2.92
2022-11-20T15:28:55.386Z,3.10
2022-11-20T15:31:44.131Z,3.33
2022-11-20T15:34:30.004Z,3.22
2022-11-20T15:37:17.053Z,3.20
2022-11-20T15:40:03.358Z,3.40
2022-11-20T15:43:08.346Z,3.67
2022-11-20T15:46:19.791Z,3.17
2022-11-20T15:49:06.540Z,2.95
2022-11-20T15:51:54.552Z,3.20
2022-11-20T15:54:40.230Z,3.60
2022-11-20T15:57:28.173Z,3.20
2022-11-20T16:00:19.311Z,3.58
2022-11-20T16:03:12.226Z,4.13
2022-11-20T16:05:58.262Z,3.17
2022-11-20T16:08:43.790Z,3.65
2022-11-20T16:11:29.943Z,3.38
2022-11-20T16:14:34.060Z,3.75
2022-11-20T16:17:39.823Z,3.67
2022-11-20T16:20:26.761Z,4.60
2022-11-20T16:23:13.652Z,4.40
2022-11-20T16:25:59.938Z,4.75
2022-11-20T16:28:47.471Z,5.25
2022-11-20T16:31:34.391Z,5.43
2022-11-20T16:34:21.066Z,5.43
2022-11-20T16:37:07.218Z,5.45
2022-11-20T16:39:52.911Z,5.43
2022-11-20T16:42:38.583Z,5.65
2022-11-20T16:45:30.059Z,5.40
2022-11-20T16:48:18.847Z,5.65
2022-11-20T16:51:04.695Z,5.15
2022-11-20T16:53:51.678Z,5.43
2022-11-20T16:56:39.035Z,5.40
2022-11-20T16:59:26.506Z,5.75
2022-11-20T17:02:11.818Z,5.55
2022-11-20T17:04:59.772Z,5.50
2022-11-20T17:07:46.316Z,5.78
2022-11-20T17:10:32.154Z,5.33
2022-11-20T17:13:18.049Z,6.07
2022-11-20T17:16:05.648Z,6.65
2022-11-20T17:18:51.310Z,6.15
2022-11-20T17:21:37.899Z,6.47
2022-11-20T17:24:26.399Z,6.15
2022-11-20T17:27:14.763Z,6.85
2022-11-20T17:30:00.150Z,6.40
2022-11-20T17:32:47.000Z,6.65
2022-11-20T17:35:32.339Z,6.20
2022-11-20T17:38:17.913Z,6.38
2022-11-20T17:41:05.192Z,6.60
2022-11-20T17:43:53.904Z,6.28
2022-11-20T17:46:39.310Z,6.55
2022-11-20T17:49:24.752Z,6.80
2022-11-20T17:52:10.270Z,6.60
2022-11-20T17:54:57.540Z,7.53
2022-11-20T17:57:57.887Z,7.47
2022-11-20T18:00:43.374Z,8.53
2022-11-20T18:03:29.079Z,7.20
2022-11-20T18:06:19.991Z,7.30
2022-11-20T18:09:06.812Z,12.85
2022-11-20T18:11:52.586Z,9.77
2022-11-20T18:14:38.076Z,9.87
2022-11-20T18:17:23.654Z,9.73
2022-11-20T18:23:14.688Z,10.90
2022-11-20T18:26:00.830Z,11.18
2022-11-20T18:28:46.761Z,12.20
2022-11-20T18:31:32.759Z,10.48
2022-11-20T18:34:18.263Z,10.57
2022-11-20T18:37:03.668Z,10.35
2022-11-20T18:39:50.232Z,10.95
2022-11-20T18:42:56.018Z,10.88
2022-11-20T18:45:41.652Z,11.20
2022-11-20T18:48:27.328Z,10.40
2022-11-20T18:51:16.105Z,11.20
2022-11-20T18:54:03.549Z,11.03
2022-11-20T18:56:49.394Z,9.18
2022-11-20T18:59:34.676Z,10.00
2022-11-20T19:02:21.145Z,13.05
2022-11-20T19:05:06.936Z,9.90
2022-11-20T19:07:52.335Z,9.55
2022-11-20T19:10:37.926Z,10.30
2022-11-20T19:13:23.819Z,9.45
2022-11-20T19:16:14.559Z,9.55
2022-11-20T19:19:03.398Z,10.18
2022-11-20T19:21:49.240Z,10.38
2022-11-20T19:24:34.653Z,10.77
2022-11-20T19:27:19.895Z,10.45
2022-11-20T19:30:05.547Z,11.27
2022-11-20T19:32:51.273Z,10.60
2022-11-20T19:35:36.983Z,10.80
2022-11-20T19:38:22.673Z,11.25
2022-11-20T19:41:09.121Z,10.98
2022-11-20T19:43:59.102Z,11.13
2022-11-20T19:46:44.951Z,10.50
2022-11-20T19:49:30.257Z,10.70
2022-11-20T19:52:15.790Z,11.10
2022-11-20T19:55:01.008Z,11.38
2022-11-20T19:57:46.378Z,11.18
2022-11-20T20:00:32.935Z,10.80
2022-11-20T20:03:18.884Z,11.10
2022-11-20T20:06:05.944Z,10.85
2022-11-20T20:09:00.631Z,10.75
2022-11-20T20:11:47.071Z,10.73
2022-11-20T20:14:32.819Z,10.23
2022-11-20T20:17:18.178Z,10.90
2022-11-20T20:20:04.109Z,10.90
2022-11-20T20:22:49.503Z,10.43
2022-11-20T20:25:37.351Z,10.50
2022-11-20T20:28:22.973Z,11.30
2022-11-20T20:31:10.929Z,11.02
2022-11-20T20:33:56.966Z,10.75
2022-11-20T20:36:42.693Z,12.38
2022-11-20T20:39:29.128Z,11.68
2022-11-20T20:42:14.615Z,12.07
2022-11-20T20:45:10.875Z,11.90
2022-11-20T20:47:56.430Z,14.00
2022-11-20T20:50:41.944Z,13.60
2022-11-20T20:53:27.557Z,12.23
2022-11-20T20:56:13.079Z,13.05
2022-11-20T20:58:58.816Z,16.77
2022-11-20T21:01:44.432Z,13.52
2022-11-20T21:04:30.119Z,13.10
2022-11-20T21:07:15.865Z,15.52
2022-11-20T21:10:01.554Z,13.57
2022-11-20T21:12:47.201Z,14.07
2022-11-20T21:15:32.530Z,12.97
2022-11-20T21:18:19.914Z,12.60
2022-11-20T21:21:26.307Z,13.10
2022-11-20T21:24:11.767Z,13.70
2022-11-20T21:26:57.955Z,13.07
2022-11-20T21:29:43.308Z,13.05
2022-11-20T21:32:28.481Z,13.23
2022-11-20T21:35:14.145Z,14.07
2022-11-20T21:37:59.589Z,14.73
2022-11-20T21:40:45.147Z,14.20
2022-11-20T21:43:30.525Z,13.82
2022-11-20T21:46:17.312Z,14.25
2022-11-20T21:49:03.737Z,13.85
2022-11-20T21:51:49.524Z,13.30
2022-11-20T21:54:36.129Z,14.52
2022-11-20T21:57:21.839Z,14.48
2022-11-20T22:00:07.787Z,14.13
2022-11-20T22:02:53.042Z,13.95
2022-11-20T22:05:39.006Z,14.23
2022-11-20T22:08:25.892Z,13.83
2022-11-20T22:11:16.495Z,13.85
2022-11-20T22:14:20.617Z,13.97
2022-11-20T22:17:06.128Z,16.20
2022-11-20T22:19:51.289Z,15.43
2022-11-20T22:22:36.759Z,16.38
2022-11-20T22:25:22.123Z,16.42
2022-11-20T22:28:07.647Z,16.67
2022-11-20T22:30:57.943Z,14.00
2022-11-20T22:33:43.334Z,13.37
2022-11-20T22:36:30.142Z,14.25
2022-11-20T22:39:15.806Z,14.52
2022-11-20T22:42:01.046Z,14.93
2022-11-20T22:44:46.426Z,14.70
2022-11-20T22:47:31.930Z,15.35
2022-11-20T22:50:17.366Z,13.32
2022-11-20T22:53:02.777Z,14.02
2022-11-20T22:55:51.281Z,13.63
2022-11-20T22:58:37.309Z,14.55
2022-11-20T23:01:25.119Z,14.98
2022-11-20T23:04:11.585Z,15.65
2022-11-20T23:06:57.035Z,15.30
2022-11-20T23:09:42.617Z,14.43
2022-11-20T23:12:28.173Z,13.20
2022-11-20T23:15:13.774Z,13.30
2022-11-20T23:17:59.114Z,14.15
2022-11-20T23:20:44.631Z,13.25
2022-11-20T23:23:30.323Z,13.23
2022-11-20T23:26:17.340Z,12.63
2022-11-20T23:29:04.519Z,12.82
2022-11-20T23:31:50.283Z,13.02
2022-11-20T23:34:35.767Z,12.48
2022-11-20T23:37:21.048Z,14.23
2022-11-20T23:40:07.507Z,13.75
2022-11-20T23:43:11.852Z,12.85
2022-11-20T23:45:59.440Z,12.13
2022-11-20T23:48:45.621Z,11.90
2022-11-20T23:51:31.363Z,12.60
2022-11-20T23:54:16.673Z,12.90
2022-11-20T23:57:02.052Z,12.77
2022-11-20T23:59:47.418Z,13.00
